createdAt,value
2017-10-31T17:17:38.037Z,5.80
2017-10-31T17:20:06.541Z,4.77
2017-10-31T17:22:34.092Z,4.50
2017-10-31T17:25:04.386Z,4.83
2017-10-31T17:27:31.910Z,5.13
2017-10-31T17:29:59.459Z,4.57
2017-10-31T17:32:28.545Z,4.80
2017-10-31T17:34:56.185Z,3.97
2017-10-31T17:37:24.159Z,4.03
2017-10-31T17:39:51.923Z,4.90
2017-10-31T17:42:19.821Z,4.47
2017-10-31T17:44:47.766Z,5.40
2017-10-31T17:47:15.413Z,6.30
2017-10-31T17:49:44.349Z,4.80
2017-10-31T17:52:11.972Z,5.50
2017-10-31T17:54:40.411Z,6.00
2017-10-31T17:57:08.502Z,5.10
2017-10-31T17:59:37.978Z,5.23
2017-10-31T18:02:05.555Z,4.87
2017-10-31T18:04:33.166Z,5.10
2017-10-31T18:07:00.818Z,4.43
2017-10-31T18:09:28.449Z,5.20
2017-10-31T18:11:56.044Z,5.80
2017-10-31T18:14:23.662Z,5.30
2017-10-31T18:16:51.161Z,5.53
2017-10-31T18:19:18.864Z,6.90
2017-10-31T18:21:46.854Z,5.60
2017-10-31T18:24:15.642Z,5.13
2017-10-31T18:26:46.462Z,5.13
2017-10-31T18:29:14.454Z,6.40
2017-10-31T18:31:44.546Z,5.13
2017-10-31T18:34:13.300Z,4.17
2017-10-31T18:36:41.708Z,4.43
2017-10-31T18:39:09.285Z,5.20
2017-10-31T18:41:37.720Z,5.80
2017-10-31T18:44:05.507Z,5.90
2017-10-31T18:46:33.084Z,6.67
2017-10-31T18:49:00.737Z,6.50
2017-10-31T18:51:28.595Z,5.97
2017-10-31T18:53:56.232Z,6.00
2017-10-31T18:56:23.825Z,6.23
2017-10-31T18:58:51.350Z,6.57
2017-10-31T19:01:19.674Z,5.90
2017-10-31T19:03:47.244Z,6.20
2017-10-31T19:06:15.594Z,6.20
2017-10-31T19:08:43.473Z,5.80
2017-10-31T19:11:11.397Z,6.00
2017-10-31T19:13:39.053Z,7.97
2017-10-31T19:16:07.321Z,5.33
2017-10-31T19:18:34.979Z,5.20
2017-10-31T19:21:03.325Z,4.90
2017-10-31T19:23:30.866Z,5.30
2017-10-31T19:25:58.381Z,4.50
2017-10-31T19:28:25.900Z,6.43
2017-10-31T19:30:53.412Z,5.17
2017-10-31T19:33:21.705Z,5.63
2017-10-31T19:35:49.950Z,5.53
2017-10-31T19:38:17.528Z,5.03
2017-10-31T19:40:45.776Z,5.73
2017-10-31T19:43:13.286Z,5.67
2017-10-31T19:45:40.810Z,6.60
2017-10-31T19:48:08.325Z,5.27
2017-10-31T19:50:36.524Z,5.57
2017-10-31T19:53:04.840Z,5.10
2017-10-31T19:55:32.338Z,5.80
2017-10-31T19:57:59.825Z,5.90
2017-10-31T20:00:27.336Z,6.30
2017-10-31T20:02:54.847Z,6.83
2017-10-31T20:05:22.368Z,6.70
2017-10-31T20:07:50.131Z,6.00
2017-10-31T20:10:17.670Z,6.70
2017-10-31T20:12:45.151Z,6.20
2017-10-31T20:15:12.684Z,6.50
2017-10-31T20:17:40.185Z,6.83
2017-10-31T20:20:07.692Z,8.37
2017-10-31T20:22:36.761Z,6.40
2017-10-31T20:25:05.078Z,6.13
2017-10-31T20:27:32.572Z,6.77
2017-10-31T20:30:01.071Z,6.60
2017-10-31T20:32:29.372Z,7.57
2017-10-31T20:34:57.662Z,7.27
2017-10-31T20:37:26.002Z,6.63
2017-10-31T20:39:53.593Z,6.37
2017-10-31T20:42:21.161Z,6.63
2017-10-31T20:44:48.665Z,6.80
2017-10-31T20:47:16.197Z,6.33
2017-10-31T20:49:43.709Z,7.23
2017-10-31T20:52:12.175Z,6.80
2017-10-31T20:54:39.715Z,8.20
2017-10-31T20:57:07.229Z,6.50
2017-10-31T20:59:35.657Z,6.77
2017-10-31T21:02:03.183Z,8.40
2017-10-31T21:04:30.682Z,7.93
2017-10-31T21:06:58.323Z,7.80
2017-10-31T21:09:25.864Z,7.90
2017-10-31T21:11:53.351Z,5.83
2017-10-31T21:14:20.925Z,8.00
2017-10-31T21:16:48.414Z,6.67
2017-10-31T21:19:16.727Z,6.20
2017-10-31T21:21:44.242Z,7.90
2017-10-31T21:24:11.783Z,7.50
2017-10-31T21:26:39.334Z,9.47
2017-10-31T21:29:07.663Z,8.87
2017-10-31T21:31:35.521Z,8.50
2017-10-31T21:34:03.084Z,7.43
2017-10-31T21:36:31.397Z,8.17
2017-10-31T21:38:58.983Z,8.43
2017-10-31T21:41:27.288Z,7.10
2017-10-31T21:43:54.839Z,7.17
2017-10-31T21:46:22.517Z,8.03
2017-10-31T21:48:50.015Z,7.70
2017-10-31T21:51:17.514Z,7.80
2017-10-31T21:53:45.034Z,6.90
2017-10-31T21:56:13.295Z,6.03
2017-10-31T21:58:41.578Z,7.87
2017-10-31T22:01:09.073Z,7.00
2017-10-31T22:03:36.637Z,6.70
2017-10-31T22:06:04.155Z,7.70
2017-10-31T22:08:31.667Z,7.07
2017-10-31T22:10:59.188Z,7.67
2017-10-31T22:13:26.813Z,7.80
2017-10-31T22:15:57.207Z,7.10
2017-10-31T22:18:25.240Z,6.63
2017-10-31T22:20:52.785Z,7.00
2017-10-31T22:23:20.541Z,7.80
2017-10-31T22:25:48.234Z,6.90
2017-10-31T22:30:48.633Z,7.63
2017-10-31T22:33:16.165Z,6.00
2017-10-31T22:35:48.483Z,6.60
2017-10-31T22:38:18.024Z,6.10
2017-10-31T22:40:46.277Z,6.13
2017-10-31T22:43:13.740Z,6.70
2017-10-31T22:45:44.225Z,6.90
2017-10-31T22:48:12.276Z,6.33
2017-10-31T22:50:40.000Z,6.80
2017-10-31T22:53:08.400Z,6.33
2017-10-31T22:55:35.931Z,7.50
2017-10-31T22:58:03.440Z,7.47
2017-10-31T23:00:30.953Z,7.80
2017-10-31T23:02:58.516Z,7.53
2017-10-31T23:05:26.078Z,6.90
2017-10-31T23:07:53.617Z,6.57
2017-10-31T23:10:22.857Z,6.40
2017-10-31T23:12:50.534Z,7.00
2017-10-31T23:15:18.033Z,6.53
2017-10-31T23:17:45.536Z,6.67
2017-10-31T23:20:13.057Z,6.27
2017-10-31T23:22:42.521Z,7.20
2017-10-31T23:25:10.028Z,6.17
2017-10-31T23:27:40.486Z,6.63
2017-10-31T23:30:08.203Z,6.87
2017-10-31T23:32:36.487Z,7.40
2017-10-31T23:35:04.806Z,7.03
2017-10-31T23:37:32.314Z,7.00
2017-10-31T23:40:00.074Z,6.97
2017-10-31T23:42:28.362Z,6.50
2017-10-31T23:44:56.643Z,6.07
2017-10-31T23:47:24.900Z,5.97
2017-10-31T23:49:53.182Z,6.40
2017-10-31T23:52:21.485Z,6.80
2017-10-31T23:54:49.005Z,6.53
2017-10-31T23:57:16.569Z,6.80
2017-10-31T23:59:44.963Z,7.00
